createdAt,value
2016-11-16T00:00:51.110Z,917.51
2016-11-16T00:02:03.553Z,917.47
2016-11-16T00:03:16.581Z,917.48
2016-11-16T00:04:29.642Z,917.43
2016-11-16T00:05:42.723Z,917.37
2016-11-16T00:06:55.178Z,917.36
2016-11-16T00:08:08.713Z,917.32
2016-11-16T00:09:21.232Z,917.33
2016-11-16T00:10:33.737Z,917.31
2016-11-16T00:11:46.250Z,917.33
2016-11-16T00:12:58.187Z,917.35
2016-11-16T00:14:11.148Z,917.33
2016-11-16T00:15:23.677Z,917.31
2016-11-16T00:16:36.171Z,917.31
2016-11-16T00:17:48.672Z,917.3
2016-11-16T00:19:00.635Z,917.31
2016-11-16T00:20:12.669Z,917.28
2016-11-16T00:21:25.182Z,917.27
2016-11-16T00:22:38.196Z,917.26
2016-11-16T00:23:51.781Z,917.24
2016-11-16T00:25:05.434Z,917.25
2016-11-16T00:26:16.857Z,917.26
2016-11-16T00:27:29.925Z,917.25
2016-11-16T00:28:43.441Z,917.23
2016-11-16T00:29:55.904Z,917.27
2016-11-16T00:32:51.384Z,917.21
2016-11-16T00:34:35.531Z,917.24
2016-11-16T00:35:47.951Z,917.19
2016-11-16T00:36:59.894Z,917.19
2016-11-16T00:38:12.382Z,917.15
2016-11-16T00:39:24.888Z,917.15
2016-11-16T00:40:37.377Z,917.13
2016-11-16T00:41:50.336Z,917.16
2016-11-16T00:43:03.912Z,917.18
2016-11-16T00:44:48.580Z,917.2
2016-11-16T00:46:00.600Z,917.13
2016-11-16T00:47:12.515Z,917.09
2016-11-16T00:48:25.556Z,917.04
2016-11-16T00:49:38.545Z,917.01
2016-11-16T00:50:50.566Z,917.01
2016-11-16T00:52:03.629Z,917.02
2016-11-16T00:53:16.172Z,917.03
2016-11-16T00:54:28.731Z,917.07
2016-11-16T00:55:41.772Z,917.08
2016-11-16T00:56:54.829Z,917.14
2016-11-16T00:58:07.344Z,917.15
2016-11-16T00:59:20.957Z,917.2
2016-11-16T01:00:33.432Z,917.18
2016-11-16T01:01:46.466Z,917.18
2016-11-16T01:02:58.420Z,917.19
2016-11-16T01:04:11.982Z,917.13
2016-11-16T01:05:24.471Z,917.17
2016-11-16T01:06:38.013Z,917.12
2016-11-16T01:07:49.964Z,917.17
2016-11-16T01:09:03.014Z,917.14
2016-11-16T01:10:16.027Z,917.07
2016-11-16T01:11:29.026Z,917.05
2016-11-16T01:12:42.103Z,917.01
2016-11-16T01:13:55.142Z,917
2016-11-16T01:15:08.743Z,916.99
2016-11-16T01:16:21.236Z,916.98
2016-11-16T01:17:34.804Z,916.96
2016-11-16T01:18:48.333Z,916.96
2016-11-16T01:20:00.305Z,916.99
2016-11-16T01:21:13.788Z,917.01
2016-11-16T01:22:26.819Z,917.02
2016-11-16T01:23:39.891Z,917.08
2016-11-16T01:24:52.451Z,917.07
2016-11-16T01:26:05.461Z,917.01
2016-11-16T01:27:17.967Z,916.99
2016-11-16T01:28:31.028Z,917
2016-11-16T01:29:44.084Z,916.99
2016-11-16T01:30:57.604Z,916.96
2016-11-16T01:32:10.607Z,916.92
2016-11-16T01:33:22.532Z,916.97
2016-11-16T01:35:06.597Z,917.07
2016-11-16T01:36:18.523Z,917.06
2016-11-16T01:37:30.469Z,917.07
2016-11-16T01:38:43.449Z,917.09
2016-11-16T01:39:55.917Z,917.12
2016-11-16T01:41:08.428Z,917.12
2016-11-16T01:42:20.359Z,917.16
2016-11-16T01:43:34.135Z,917.08
2016-11-16T01:44:47.251Z,917.07
2016-11-16T01:45:58.187Z,917.02
2016-11-16T01:47:11.215Z,917.02
2016-11-16T01:48:22.685Z,917.01
2016-11-16T01:49:36.267Z,916.98
2016-11-16T01:50:48.727Z,916.95
2016-11-16T01:52:01.244Z,916.91
2016-11-16T01:53:12.661Z,916.83
2016-11-16T01:54:25.156Z,916.77
2016-11-16T01:55:37.665Z,916.74
2016-11-16T01:56:50.234Z,916.74
2016-11-16T01:58:03.211Z,916.76
2016-11-16T01:59:15.689Z,916.75
2016-11-16T02:00:29.217Z,916.78
2016-11-16T02:01:42.291Z,916.79
2016-11-16T02:02:55.796Z,916.8
2016-11-16T02:04:08.296Z,916.83
2016-11-16T02:05:20.232Z,916.82
2016-11-16T02:06:33.193Z,916.84
2016-11-16T02:07:45.619Z,916.85
2016-11-16T02:08:58.585Z,916.81
2016-11-16T02:10:10.551Z,916.8
2016-11-16T02:11:22.525Z,916.8
2016-11-16T02:12:35.030Z,916.79
2016-11-16T02:13:46.994Z,916.75
2016-11-16T02:14:59.506Z,916.74
2016-11-16T02:16:13.024Z,916.72
2016-11-16T02:17:24.990Z,916.68
2016-11-16T02:18:37.522Z,916.69
2016-11-16T02:19:49.963Z,916.72
2016-11-16T02:21:03.054Z,916.7
2016-11-16T02:22:16.629Z,916.73
2016-11-16T02:23:29.609Z,916.7
2016-11-16T02:24:42.078Z,916.71
2016-11-16T02:25:54.601Z,916.75
2016-11-16T02:27:07.070Z,916.74
2016-11-16T02:28:19.052Z,916.8
2016-11-16T02:29:32.121Z,916.79
2016-11-16T02:30:43.573Z,916.83
2016-11-16T02:31:56.093Z,916.79
2016-11-16T02:33:08.595Z,916.78
2016-11-16T02:34:21.640Z,916.79
2016-11-16T02:35:34.667Z,916.76
2016-11-16T02:36:46.660Z,916.77
2016-11-16T02:37:58.629Z,916.74
2016-11-16T02:39:11.596Z,916.77
2016-11-16T02:40:25.143Z,916.79
2016-11-16T02:41:37.687Z,916.79
2016-11-16T02:42:50.695Z,916.83
2016-11-16T02:44:03.168Z,916.8
2016-11-16T02:45:15.059Z,916.8
2016-11-16T02:46:28.564Z,916.77
2016-11-16T02:47:41.080Z,916.77
2016-11-16T02:48:54.184Z,916.76
2016-11-16T02:50:06.652Z,916.83
2016-11-16T02:51:19.722Z,916.79
2016-11-16T02:52:32.189Z,916.82
2016-11-16T02:53:43.645Z,916.76
2016-11-16T02:54:55.603Z,916.8
2016-11-16T02:56:08.615Z,916.79
2016-11-16T02:57:20.620Z,916.78
2016-11-16T02:58:33.118Z,916.8
2016-11-16T02:59:45.095Z,916.82
2016-11-16T03:00:58.189Z,916.83
2016-11-16T03:02:11.775Z,916.79
2016-11-16T03:03:24.844Z,916.76
2016-11-16T03:04:37.299Z,916.77
2016-11-16T03:05:50.763Z,916.74
2016-11-16T03:07:03.825Z,916.74
2016-11-16T03:08:16.322Z,916.76
2016-11-16T03:09:29.900Z,916.77
2016-11-16T03:10:42.893Z,916.78
2016-11-16T03:11:55.919Z,916.75
2016-11-16T03:13:39.514Z,916.74
2016-11-16T03:14:51.954Z,916.79
2016-11-16T03:16:05.502Z,916.79
2016-11-16T03:17:17.951Z,916.77
2016-11-16T03:18:31.475Z,916.79
2016-11-16T03:19:43.453Z,916.78
2016-11-16T03:20:56.501Z,916.81
2016-11-16T03:22:09.574Z,916.82
2016-11-16T03:23:22.043Z,916.82
2016-11-16T03:24:34.530Z,916.83
2016-11-16T03:25:46.579Z,916.8
2016-11-16T03:26:59.618Z,916.79
2016-11-16T03:28:12.148Z,916.8
2016-11-16T03:29:25.659Z,916.79
2016-11-16T03:30:38.732Z,916.74
2016-11-16T03:31:50.658Z,916.7
2016-11-16T03:33:03.159Z,916.69
2016-11-16T03:34:16.744Z,916.7
2016-11-16T03:35:29.828Z,916.64
2016-11-16T03:36:43.404Z,916.67
2016-11-16T03:37:56.937Z,916.62
2016-11-16T03:39:10.524Z,916.59
2016-11-16T03:40:22.493Z,916.58
2016-11-16T03:41:35.516Z,916.62
2016-11-16T03:42:47.991Z,916.6
2016-11-16T03:44:01.034Z,916.56
2016-11-16T03:45:13.474Z,916.56
2016-11-16T03:46:26.488Z,916.56
2016-11-16T03:47:38.488Z,916.61
2016-11-16T03:48:52.018Z,916.67
2016-11-16T03:50:05.121Z,916.67
2016-11-16T03:51:18.102Z,916.68
2016-11-16T03:52:31.116Z,916.72
2016-11-16T03:53:43.590Z,916.7
2016-11-16T03:54:56.104Z,916.69
2016-11-16T03:56:09.749Z,916.7
2016-11-16T03:57:22.787Z,916.7
2016-11-16T03:58:35.243Z,916.69
2016-11-16T03:59:47.165Z,916.7
2016-11-16T04:00:59.714Z,916.68
2016-11-16T04:02:12.249Z,916.65
2016-11-16T04:03:24.771Z,916.68
2016-11-16T04:04:37.232Z,916.69
2016-11-16T04:05:50.293Z,916.64
2016-11-16T04:07:03.851Z,916.59
2016-11-16T04:08:16.885Z,916.56
2016-11-16T04:09:30.438Z,916.58
2016-11-16T04:10:42.931Z,916.57
2016-11-16T04:11:56.397Z,916.57
2016-11-16T04:13:08.993Z,916.56
2016-11-16T04:14:21.451Z,916.61
2016-11-16T04:15:33.984Z,916.58
2016-11-16T04:16:46.493Z,916.63
2016-11-16T04:17:59.437Z,916.57
2016-11-16T04:19:12.396Z,916.57
2016-11-16T04:20:25.912Z,916.55
2016-11-16T04:21:38.950Z,916.53
2016-11-16T04:22:52.035Z,916.5
2016-11-16T04:24:03.477Z,916.46
2016-11-16T04:25:15.955Z,916.43
2016-11-16T04:26:28.940Z,916.45
2016-11-16T04:27:42.549Z,916.41
2016-11-16T04:28:55.045Z,916.4
2016-11-16T04:30:08.064Z,916.42
2016-11-16T04:31:21.110Z,916.37
2016-11-16T04:32:34.156Z,916.33
2016-11-16T04:33:47.198Z,916.35
2016-11-16T04:34:59.081Z,916.36
2016-11-16T04:36:11.096Z,916.36
2016-11-16T04:37:24.059Z,916.32
2016-11-16T04:38:37.582Z,916.33
2016-11-16T04:39:48.453Z,916.31
2016-11-16T04:41:01.527Z,916.29
2016-11-16T04:42:14.573Z,916.32
2016-11-16T04:43:27.161Z,916.33
2016-11-16T04:44:40.204Z,916.36
2016-11-16T04:45:53.257Z,916.35
2016-11-16T04:47:06.819Z,916.39
2016-11-16T04:48:17.714Z,916.37
2016-11-16T04:49:30.760Z,916.35
2016-11-16T04:50:43.814Z,916.39
2016-11-16T04:51:56.325Z,916.43
2016-11-16T04:53:08.818Z,916.45
2016-11-16T04:54:21.862Z,916.49
2016-11-16T04:55:34.917Z,916.5
2016-11-16T04:56:46.904Z,916.51
2016-11-16T04:57:59.343Z,916.51
2016-11-16T04:59:11.271Z,916.54
2016-11-16T05:00:24.873Z,916.49
2016-11-16T05:01:36.861Z,916.53
2016-11-16T05:02:49.411Z,916.55
2016-11-16T05:04:02.510Z,916.57
2016-11-16T05:05:16.062Z,916.58
2016-11-16T05:06:29.049Z,916.62
2016-11-16T05:07:42.021Z,916.65
2016-11-16T05:08:55.557Z,916.7
2016-11-16T05:10:08.063Z,916.68
2016-11-16T05:11:21.101Z,916.7
2016-11-16T05:12:34.645Z,916.71
2016-11-16T05:13:48.081Z,916.74
2016-11-16T05:15:01.014Z,916.78
2016-11-16T05:16:13.990Z,916.8
2016-11-16T05:17:26.505Z,916.76
2016-11-16T05:18:38.965Z,916.74
2016-11-16T05:19:51.952Z,916.74
2016-11-16T05:21:04.456Z,916.69
2016-11-16T05:22:16.971Z,916.66
2016-11-16T05:23:29.984Z,916.65
2016-11-16T05:24:42.500Z,916.63
2016-11-16T05:25:54.494Z,916.62
2016-11-16T05:27:07.469Z,916.62
2016-11-16T05:28:19.929Z,916.63
2016-11-16T05:29:32.440Z,916.63
2016-11-16T05:30:44.414Z,916.64
2016-11-16T05:31:56.975Z,916.61
2016-11-16T05:33:09.958Z,916.62
2016-11-16T05:34:22.423Z,916.61
2016-11-16T05:35:34.963Z,916.61
2016-11-16T05:36:48.569Z,916.63
2016-11-16T05:38:01.635Z,916.62
2016-11-16T05:39:14.609Z,916.63
2016-11-16T05:40:27.548Z,916.66
2016-11-16T05:41:40.070Z,916.72
2016-11-16T05:42:52.540Z,916.72
2016-11-16T05:44:05.010Z,916.76
2016-11-16T05:45:17.546Z,916.76
2016-11-16T05:46:31.106Z,916.76
2016-11-16T05:47:44.089Z,916.78
2016-11-16T05:48:57.558Z,916.82
2016-11-16T05:51:54.649Z,916.87
2016-11-16T05:53:08.149Z,916.9
2016-11-16T05:54:21.182Z,916.85
2016-11-16T05:55:34.168Z,916.9
2016-11-16T05:56:47.683Z,916.88
2016-11-16T05:58:01.229Z,916.92
2016-11-16T05:59:13.688Z,916.95
2016-11-16T06:00:26.670Z,916.93
2016-11-16T06:01:39.153Z,916.95
2016-11-16T06:02:52.801Z,916.95
2016-11-16T06:04:05.285Z,916.91
2016-11-16T06:05:18.312Z,916.91
2016-11-16T06:06:31.345Z,916.91
2016-11-16T06:07:43.812Z,916.91
2016-11-16T06:08:57.368Z,916.91
2016-11-16T06:10:10.413Z,916.87
2016-11-16T06:11:24.008Z,916.89
2016-11-16T06:12:36.482Z,916.88
2016-11-16T06:13:49.567Z,916.9
2016-11-16T06:15:02.587Z,916.85
2016-11-16T06:16:15.111Z,916.86
2016-11-16T06:17:28.106Z,916.84
2016-11-16T06:18:41.161Z,916.83
2016-11-16T06:19:53.611Z,916.78
2016-11-16T06:21:06.639Z,916.8
2016-11-16T06:22:19.621Z,916.79
2016-11-16T06:23:31.600Z,916.75
2016-11-16T06:24:44.635Z,916.72
2016-11-16T06:25:57.161Z,916.63
2016-11-16T06:27:10.171Z,916.65
2016-11-16T06:28:23.150Z,916.57
2016-11-16T06:29:36.700Z,916.57
2016-11-16T06:30:50.205Z,916.51
2016-11-16T06:32:02.692Z,916.47
2016-11-16T06:33:15.155Z,916.42
2016-11-16T06:34:27.169Z,916.37
2016-11-16T06:35:40.774Z,916.34
2016-11-16T06:36:54.392Z,916.31
2016-11-16T06:38:07.413Z,916.29
2016-11-16T06:39:20.434Z,916.3
2016-11-16T06:40:33.965Z,916.31
2016-11-16T06:41:45.924Z,916.27
2016-11-16T06:42:58.352Z,916.24
2016-11-16T06:44:11.393Z,916.21
2016-11-16T06:45:23.355Z,916.27
2016-11-16T06:46:35.276Z,916.28
2016-11-16T06:47:48.343Z,916.32
2016-11-16T06:49:01.855Z,916.34
2016-11-16T06:50:15.491Z,916.34
2016-11-16T06:51:27.959Z,916.32
2016-11-16T06:52:41.460Z,916.32
2016-11-16T06:53:54.954Z,916.33
2016-11-16T06:55:08.618Z,916.33
2016-11-16T06:56:20.016Z,916.4
2016-11-16T06:57:32.535Z,916.39
2016-11-16T06:58:46.092Z,916.36
2016-11-16T06:59:58.568Z,916.38
2016-11-16T07:01:12.063Z,916.36
2016-11-16T07:02:25.150Z,916.36
2016-11-16T07:03:38.684Z,916.31
2016-11-16T07:04:51.720Z,916.4
2016-11-16T07:06:04.213Z,916.43
2016-11-16T07:07:16.158Z,916.45
2016-11-16T07:08:29.667Z,916.48
2016-11-16T07:09:43.136Z,916.46
2016-11-16T07:10:56.157Z,916.42
2016-11-16T07:12:08.667Z,916.42
2016-11-16T07:13:21.200Z,916.48
2016-11-16T07:15:05.342Z,916.55
2016-11-16T07:16:18.907Z,916.62
2016-11-16T07:17:31.426Z,916.64
2016-11-16T07:18:44.955Z,916.68
2016-11-16T07:19:58.539Z,916.71
2016-11-16T07:21:12.137Z,916.73
2016-11-16T07:22:25.092Z,916.77
2016-11-16T07:23:37.621Z,916.73
2016-11-16T07:24:50.686Z,916.78
2016-11-16T07:26:03.164Z,916.77
2016-11-16T07:27:15.610Z,916.78
2016-11-16T07:28:28.601Z,916.82
2016-11-16T07:29:41.633Z,916.88
2016-11-16T07:30:53.639Z,916.89
2016-11-16T07:32:07.185Z,916.86
2016-11-16T07:35:03.539Z,916.76
2016-11-16T07:36:16.052Z,916.78
2016-11-16T07:37:29.655Z,916.8
2016-11-16T07:38:43.265Z,916.83
2016-11-16T07:39:55.321Z,916.85
2016-11-16T07:41:07.885Z,916.93
2016-11-16T07:42:20.425Z,916.9
2016-11-16T07:43:33.470Z,916.93
2016-11-16T07:44:46.459Z,916.93
2016-11-16T07:45:58.932Z,916.96
2016-11-16T07:47:11.479Z,916.97
2016-11-16T07:48:24.529Z,916.99
2016-11-16T07:49:37.513Z,916.96
2016-11-16T07:50:50.568Z,916.97
2016-11-16T07:52:03.584Z,916.98
2016-11-16T07:53:48.262Z,916.96
2016-11-16T07:55:01.820Z,916.92
2016-11-16T07:56:13.817Z,916.92
2016-11-16T07:57:25.741Z,916.92
2016-11-16T07:58:38.725Z,916.94
2016-11-16T07:59:51.841Z,916.96
2016-11-16T08:01:04.901Z,917
2016-11-16T08:02:16.892Z,916.99
2016-11-16T08:03:28.854Z,917.03
2016-11-16T08:04:42.383Z,917.09
2016-11-16T08:05:54.889Z,917.05
2016-11-16T08:07:08.005Z,917.04
2016-11-16T08:08:21.022Z,917.04
2016-11-16T08:09:34.106Z,917.01
2016-11-16T08:10:47.150Z,916.97
2016-11-16T08:12:00.679Z,916.98
2016-11-16T08:13:13.207Z,916.98
2016-11-16T08:14:26.254Z,917.01
2016-11-16T08:15:38.698Z,917.05
2016-11-16T08:16:51.245Z,917.06
2016-11-16T08:18:04.770Z,917.16
2016-11-16T08:19:16.758Z,917.21
2016-11-16T08:20:28.724Z,917.24
2016-11-16T08:21:41.207Z,917.22
2016-11-16T08:22:54.791Z,917.19
2016-11-16T08:24:07.266Z,917.16
2016-11-16T08:25:19.204Z,917.17
2016-11-16T08:26:32.723Z,917.23
2016-11-16T08:27:45.187Z,917.21
2016-11-16T08:28:57.702Z,917.25
2016-11-16T08:30:10.686Z,917.26
2016-11-16T08:31:23.718Z,917.29
2016-11-16T08:32:36.287Z,917.32
2016-11-16T08:33:48.828Z,917.37
2016-11-16T08:35:02.411Z,917.38
2016-11-16T08:36:13.834Z,917.43
2016-11-16T08:37:26.325Z,917.45
2016-11-16T08:38:39.855Z,917.45
2016-11-16T08:40:24.080Z,917.45
2016-11-16T08:41:36.562Z,917.41
2016-11-16T08:42:48.596Z,917.41
2016-11-16T08:44:00.597Z,917.38
2016-11-16T08:45:14.149Z,917.42
2016-11-16T08:46:27.180Z,917.41
2016-11-16T08:47:40.194Z,917.45
2016-11-16T08:48:52.147Z,917.49
2016-11-16T08:50:04.686Z,917.5
2016-11-16T08:51:18.197Z,917.53
2016-11-16T08:52:31.188Z,917.55
2016-11-16T08:53:44.737Z,917.58
2016-11-16T08:54:57.240Z,917.66
2016-11-16T08:56:10.309Z,917.69
2016-11-16T08:57:22.854Z,917.69
2016-11-16T08:58:35.324Z,917.63
2016-11-16T08:59:48.331Z,917.64
2016-11-16T09:01:00.826Z,917.66
2016-11-16T09:02:13.315Z,917.65
2016-11-16T09:03:25.808Z,917.68
2016-11-16T09:04:38.782Z,917.66
2016-11-16T09:05:50.759Z,917.68
2016-11-16T09:07:03.735Z,917.67
2016-11-16T09:08:15.646Z,917.71
2016-11-16T09:09:28.588Z,917.73
2016-11-16T09:10:41.091Z,917.73
2016-11-16T09:11:54.114Z,917.75
2016-11-16T09:13:07.154Z,917.8
2016-11-16T09:14:19.145Z,917.85
2016-11-16T09:15:32.759Z,917.89
2016-11-16T09:16:45.766Z,917.93
2016-11-16T09:17:57.708Z,917.94
2016-11-16T09:19:10.660Z,917.95
2016-11-16T09:20:23.712Z,917.98
2016-11-16T09:21:37.291Z,918.04
2016-11-16T09:22:49.883Z,918.1
2016-11-16T09:24:01.965Z,918.07
2016-11-16T09:25:15.027Z,918.12
2016-11-16T09:26:28.657Z,918.14
2016-11-16T09:27:42.216Z,918.16
2016-11-16T09:28:54.693Z,918.15
2016-11-16T09:30:08.287Z,918.2
2016-11-16T09:31:21.841Z,918.2
2016-11-16T09:32:34.853Z,918.26
2016-11-16T09:33:47.939Z,918.23
2016-11-16T09:35:00.970Z,918.21
2016-11-16T09:36:14.007Z,918.23
2016-11-16T09:37:24.893Z,918.24
2016-11-16T09:38:37.472Z,918.22
2016-11-16T09:39:50.002Z,918.25
2016-11-16T09:42:47.734Z,918.27
2016-11-16T09:44:00.280Z,918.3
2016-11-16T09:45:13.291Z,918.35
2016-11-16T09:46:25.784Z,918.34
2016-11-16T09:47:38.272Z,918.25
2016-11-16T09:48:51.299Z,918.28
2016-11-16T09:50:03.304Z,918.28
2016-11-16T09:51:15.268Z,918.23
2016-11-16T09:52:28.306Z,918.32
2016-11-16T09:53:41.262Z,918.35
2016-11-16T09:54:53.728Z,918.36
2016-11-16T09:56:06.338Z,918.34
2016-11-16T09:57:19.914Z,918.37
2016-11-16T09:58:32.460Z,918.36
2016-11-16T09:59:46.038Z,918.38
2016-11-16T10:01:30.733Z,918.43
2016-11-16T10:02:44.244Z,918.39
2016-11-16T10:03:57.810Z,918.38
2016-11-16T10:05:10.773Z,918.4
2016-11-16T10:06:23.748Z,918.38
2016-11-16T10:07:37.239Z,918.45
2016-11-16T10:08:50.237Z,918.44
2016-11-16T10:10:02.769Z,918.48
2016-11-16T10:11:16.350Z,918.52
2016-11-16T10:12:28.321Z,918.44
2016-11-16T10:13:41.843Z,918.48
2016-11-16T10:14:54.359Z,918.51
2016-11-16T10:16:06.887Z,918.59
2016-11-16T10:17:18.905Z,918.75
2016-11-16T10:18:31.423Z,918.63
2016-11-16T10:19:44.509Z,918.54
2016-11-16T10:20:57.803Z,918.55
2016-11-16T10:22:10.368Z,918.71
2016-11-16T10:23:23.430Z,918.55
2016-11-16T10:24:36.481Z,918.6
2016-11-16T10:25:48.495Z,918.57
2016-11-16T10:27:01.642Z,918.7
2016-11-16T10:28:15.242Z,918.59
2016-11-16T10:29:27.745Z,918.91
2016-11-16T10:30:40.283Z,918.82
2016-11-16T10:31:52.748Z,918.86
2016-11-16T10:33:06.319Z,918.98
2016-11-16T10:34:19.392Z,918.97
2016-11-16T10:35:31.371Z,918.92
2016-11-16T10:36:43.362Z,918.92
2016-11-16T10:37:56.380Z,918.86
2016-11-16T10:39:09.939Z,918.85
2016-11-16T10:40:21.911Z,918.85
2016-11-16T10:41:34.439Z,918.82
2016-11-16T10:42:47.982Z,918.85
2016-11-16T10:44:01.066Z,918.92
2016-11-16T10:45:13.584Z,918.9
2016-11-16T10:46:26.084Z,918.95
2016-11-16T10:47:39.693Z,918.95
2016-11-16T10:48:53.229Z,918.97
2016-11-16T10:50:05.763Z,918.96
2016-11-16T10:51:18.846Z,918.97
2016-11-16T10:52:31.856Z,919.01
2016-11-16T10:53:45.446Z,918.99
2016-11-16T10:54:58.017Z,918.95
2016-11-16T10:56:11.644Z,918.99
2016-11-16T10:57:23.611Z,919.01
2016-11-16T10:58:37.145Z,919.01
2016-11-16T10:59:49.115Z,919.04
2016-11-16T11:01:01.622Z,919.02
2016-11-16T11:02:14.654Z,919.03
2016-11-16T11:03:26.667Z,919.08
2016-11-16T11:04:40.265Z,919.06
2016-11-16T11:05:52.781Z,919.09
2016-11-16T11:07:05.297Z,918.96
2016-11-16T11:08:17.822Z,918.89
2016-11-16T11:09:30.331Z,918.85
2016-11-16T11:10:43.861Z,918.95
2016-11-16T11:11:56.843Z,918.89
2016-11-16T11:13:10.464Z,918.83
2016-11-16T11:14:24.117Z,918.91
2016-11-16T11:15:37.133Z,918.89
2016-11-16T11:16:49.659Z,918.87
2016-11-16T11:18:02.143Z,918.86
2016-11-16T11:19:14.123Z,918.84
2016-11-16T11:20:27.217Z,918.86
2016-11-16T11:21:40.280Z,918.92
2016-11-16T11:22:52.788Z,918.86
2016-11-16T11:24:05.870Z,918.83
2016-11-16T11:25:17.825Z,918.82
2016-11-16T11:26:31.377Z,918.8
2016-11-16T11:28:16.137Z,918.77
2016-11-16T11:29:29.179Z,918.7
2016-11-16T11:30:41.108Z,918.54
2016-11-16T11:31:54.184Z,918.72
2016-11-16T11:33:07.258Z,918.71
2016-11-16T11:34:50.912Z,918.72
2016-11-16T11:36:02.862Z,918.76
2016-11-16T11:37:15.418Z,918.73
2016-11-16T11:38:28.011Z,918.78
2016-11-16T11:39:41.044Z,918.71
2016-11-16T11:40:54.225Z,918.76
2016-11-16T11:42:07.390Z,918.73
2016-11-16T11:43:19.885Z,918.75
2016-11-16T11:44:32.828Z,918.75
2016-11-16T11:45:45.922Z,918.72
2016-11-16T11:46:58.498Z,918.68
2016-11-16T11:48:11.575Z,918.65
2016-11-16T11:49:23.563Z,918.65
2016-11-16T11:50:36.585Z,918.62
2016-11-16T11:51:49.689Z,918.63
2016-11-16T11:53:02.156Z,918.6
2016-11-16T11:54:15.248Z,918.61
2016-11-16T11:55:28.288Z,918.62
2016-11-16T11:56:40.896Z,918.6
2016-11-16T11:57:53.992Z,918.6
2016-11-16T11:59:06.534Z,918.53
2016-11-16T12:00:19.069Z,918.53
2016-11-16T12:01:32.262Z,918.5
2016-11-16T12:02:45.247Z,918.54
2016-11-16T12:03:57.783Z,918.58
2016-11-16T12:05:10.344Z,918.59
2016-11-16T12:07:26.158Z,918.59
2016-11-16T12:08:39.657Z,918.54
2016-11-16T12:09:53.215Z,918.55
2016-11-16T12:11:06.253Z,918.55
2016-11-16T12:14:02.955Z,918.53
2016-11-16T12:15:15.473Z,918.51
2016-11-16T12:16:28.522Z,918.48
2016-11-16T12:17:42.085Z,918.5
2016-11-16T12:18:55.603Z,918.48
2016-11-16T12:20:08.625Z,918.44
2016-11-16T12:21:21.642Z,918.45
2016-11-16T12:22:35.237Z,918.45
2016-11-16T12:23:48.804Z,918.44
2016-11-16T12:25:01.339Z,918.46
2016-11-16T12:26:14.930Z,918.45
2016-11-16T12:27:28.436Z,918.46
2016-11-16T12:28:41.457Z,918.41
2016-11-16T12:29:54.500Z,918.47
2016-11-16T12:31:07.508Z,918.39
2016-11-16T12:32:19.968Z,918.42
2016-11-16T12:33:31.929Z,918.41
2016-11-16T12:34:45.532Z,918.36
2016-11-16T12:35:57.465Z,918.42
2016-11-16T12:37:42.138Z,918.39
2016-11-16T12:38:55.206Z,918.41
2016-11-16T12:40:08.236Z,918.19
2016-11-16T12:41:21.807Z,918.24
2016-11-16T12:42:35.344Z,918.45
2016-11-16T12:43:48.374Z,918.33
2016-11-16T12:45:00.885Z,918.3
2016-11-16T12:46:14.501Z,918.33
2016-11-16T12:47:28.020Z,918.37
2016-11-16T12:48:41.067Z,918.39
2016-11-16T12:49:53.570Z,918.39
2016-11-16T12:51:07.124Z,918.22
2016-11-16T12:52:19.636Z,918.22
2016-11-16T12:53:32.677Z,918.31
2016-11-16T12:54:45.185Z,918.3
2016-11-16T12:55:58.243Z,918.31
2016-11-16T12:57:10.167Z,918.31
2016-11-16T12:58:23.772Z,918.29
2016-11-16T12:59:35.709Z,918.24
2016-11-16T13:00:48.693Z,918.26
2016-11-16T13:02:01.733Z,918.21
2016-11-16T13:03:14.767Z,918.31
2016-11-16T13:04:28.340Z,918.25
2016-11-16T13:05:40.294Z,918.26
2016-11-16T13:06:52.799Z,918.26
2016-11-16T13:08:06.364Z,918.27
2016-11-16T13:09:20.012Z,918.22
2016-11-16T13:10:33.078Z,918.2
2016-11-16T13:11:46.637Z,918.31
2016-11-16T13:12:59.724Z,918.29
2016-11-16T13:15:55.280Z,918.24
2016-11-16T13:17:08.305Z,918.2
2016-11-16T13:18:20.264Z,918.14
2016-11-16T13:19:33.283Z,918.14
2016-11-16T13:20:45.790Z,918.17
2016-11-16T13:21:58.857Z,918.13
2016-11-16T13:23:10.817Z,918.16
2016-11-16T13:24:24.625Z,918.14
2016-11-16T13:25:38.172Z,918.16
2016-11-16T13:27:21.797Z,918.15
2016-11-16T13:28:35.402Z,918.1
2016-11-16T13:29:48.472Z,918.13
2016-11-16T13:31:00.519Z,918.1
2016-11-16T13:32:12.210Z,918.15
2016-11-16T13:33:25.265Z,918.08
2016-11-16T13:34:37.775Z,918.1
2016-11-16T13:35:50.287Z,918.09
2016-11-16T13:37:02.324Z,918.04
2016-11-16T13:38:15.401Z,918.15
2016-11-16T13:39:28.484Z,918.09
2016-11-16T13:40:41.527Z,918.07
2016-11-16T13:41:55.109Z,918.05
2016-11-16T13:43:08.102Z,918.11
2016-11-16T13:44:20.638Z,918.12
2016-11-16T13:45:32.640Z,918.21
2016-11-16T13:46:45.080Z,918.22
2016-11-16T13:47:57.583Z,918.19
2016-11-16T13:49:11.148Z,918.06
2016-11-16T13:50:24.717Z,918.1
2016-11-16T13:51:37.751Z,918.1
2016-11-16T13:52:50.809Z,918.14
2016-11-16T13:54:02.716Z,918.08
2016-11-16T13:55:15.143Z,918.1
2016-11-16T13:56:27.163Z,918.09
2016-11-16T13:57:39.596Z,918.19
2016-11-16T13:58:52.614Z,918.2
2016-11-16T14:00:05.170Z,918.16
2016-11-16T14:01:17.639Z,918.09
2016-11-16T14:02:30.197Z,918.14
2016-11-16T14:03:42.726Z,918.18
2016-11-16T14:04:55.252Z,918.24
2016-11-16T14:06:07.709Z,918.22
2016-11-16T14:07:20.782Z,918.24
2016-11-16T14:08:32.239Z,918.13
2016-11-16T14:09:44.228Z,918.14
2016-11-16T14:10:56.233Z,918.12
2016-11-16T14:12:09.254Z,918.18
2016-11-16T14:13:22.298Z,918.16
2016-11-16T14:14:34.786Z,918.2
2016-11-16T14:15:46.796Z,918.16
2016-11-16T14:16:59.301Z,918.16
2016-11-16T14:18:11.270Z,918.06
2016-11-16T14:19:24.316Z,917.98
2016-11-16T14:20:37.370Z,918.04
2016-11-16T14:21:49.369Z,918.06
2016-11-16T14:23:01.833Z,917.97
2016-11-16T14:24:15.347Z,918
2016-11-16T14:25:27.808Z,918.01
2016-11-16T14:26:39.776Z,917.99
2016-11-16T14:27:52.886Z,918.01
2016-11-16T14:29:06.475Z,917.97
2016-11-16T14:30:19.482Z,917.94
2016-11-16T14:31:32.540Z,917.97
2016-11-16T14:32:44.977Z,917.96
2016-11-16T14:33:57.962Z,917.92
2016-11-16T14:35:11.472Z,918
2016-11-16T14:36:23.950Z,918.07
2016-11-16T14:37:37.003Z,918.02
2016-11-16T14:38:50.257Z,918.05
2016-11-16T14:40:02.756Z,918.09
2016-11-16T14:41:16.683Z,918.04
2016-11-16T14:42:28.645Z,918.09
2016-11-16T14:43:41.751Z,918.02
2016-11-16T14:44:54.820Z,917.99
2016-11-16T14:46:07.328Z,917.96
2016-11-16T14:47:20.349Z,917.96
2016-11-16T14:48:32.835Z,917.96
2016-11-16T14:49:44.885Z,917.95
2016-11-16T14:50:58.476Z,917.91
2016-11-16T14:52:11.019Z,917.92
2016-11-16T14:55:06.637Z,917.86
2016-11-16T14:56:50.750Z,917.91
2016-11-16T14:58:02.701Z,917.86
2016-11-16T14:59:16.252Z,917.88
2016-11-16T15:00:29.228Z,917.89
2016-11-16T15:01:41.717Z,917.85
2016-11-16T15:02:55.271Z,917.76
2016-11-16T15:04:08.326Z,917.76
2016-11-16T15:05:20.815Z,917.76
2016-11-16T15:06:33.884Z,917.78
2016-11-16T15:07:46.909Z,917.84
2016-11-16T15:08:59.943Z,917.8
2016-11-16T15:10:13.479Z,917.84
2016-11-16T15:11:26.989Z,917.79
2016-11-16T15:12:39.499Z,917.81
2016-11-16T15:13:51.970Z,917.8
2016-11-16T15:15:04.433Z,917.81
2016-11-16T15:16:16.917Z,917.78
2016-11-16T15:18:01.083Z,917.78
2016-11-16T15:19:12.537Z,917.73
2016-11-16T15:20:25.041Z,917.63
2016-11-16T15:21:38.055Z,917.66
2016-11-16T15:22:50.020Z,917.59
2016-11-16T15:24:03.578Z,917.68
2016-11-16T15:25:16.051Z,917.57
2016-11-16T15:26:29.081Z,917.51
2016-11-16T15:27:42.639Z,917.59
2016-11-16T15:28:55.179Z,917.52
2016-11-16T15:30:07.205Z,917.57
2016-11-16T15:31:19.703Z,917.59
2016-11-16T15:32:32.682Z,917.58